Airfield :
LOGIN :

Register | Disclaimer

   EN    FR    IT 

 










Legend :    VFR   Marginal VFR   IFR   Intensive IFR   Very Intensive IFR
Visi :
Ceiling :
>= 8 km
>= 3000ft
5 to 8 km
1000 to 3000 ft
1500m to 5 km
500 to 1000 ft
800 to 1500m
200 to 500 ft
< 800m
< 200 ft
Symbols :   Thunderstorms  Fog  Heavy snow  Heavy precipitations  Wind > 20 kt
SIGMETs :     Misc.  Thunderstorms  Icing  Turbulence  Mountain Waves  Volcanic Ashes






- Airport Elevation : 978 ft
- IATA code : LNZ


LOWL - Linz

CURRENT METAR :
  • 091850Z AUTO 24005KT 4400 -SN BR FEW006 OVC022 00/00 Q1002 NOSIG

EXPIRED METARs :
  • 091820Z AUTO 26005KT 5000 -SN BR FEW016 BKN022 00/00 Q1002 NOSIG
  • 091750Z AUTO 24005KT 5000 -RADZ FEW009 BKN019 01/00 Q1001 TEMPO BKN009
  • 091720Z AUTO 25004KT 6000 -RADZ FEW008 SCT009 BKN012 01/00 Q1001 TEMPO BKN009
  • 091650Z AUTO 25004KT 6000 BKN009 01/00 Q1001 TEMPO BKN012
  • 091620Z AUTO 27003KT 5000 BR SCT009 BKN011 01/00 Q1000 TEMPO BKN015

TAF TAF LOWL
Valid from the 09 at 18:00 until the 10 at 18:00 UTC


091715Z 0918/1018 27005KT 6000 BKN015 TX01/1010Z TNM00/0922Z
TEMPO 0918/1003 2000 -SN BKN004
TEMPO 1003/1007 4000 BKN004
TEMPO 1012/1018 -RA BKN012



MET'MAP, your aeronautical weather chart ! - Copyright ORBIFLY December 2007 - Disclaimer

ORBIFLY MET'MAP TEAM :

Programming & Development : Alexandra Zaïnal
Original concept : Baudouin d'Aumeries
Technical & hardware support : Manuel Goepfert
Assistance : Marc-Olivier Méhu




SOURCES & CREDITS :

   NOAA